Time;durP1;ratioP1;P1;durP2;ratioP2;P2;SDS_P1;SDS_P2;PMS_P1;PMS_P2;Temp;Humidity;BMP_temperature;BMP_pressure;BME280_temperature;BME280_humidity;BME280_pressure;Samples;Min_cycle;Max_cycle;Signal;HPM_P1;HPM_P2
2022/01/15 00:00:30;;;;;;;35.47;12.40;;;0.80;99.90;;;;;;4997584;28;20026;-82
2022/01/15 00:02:56;;;;;;;36.67;14.17;;;0.70;99.90;;;;;;5014494;28;20037;-82
2022/01/15 00:05:22;;;;;;;33.73;13.60;;;0.70;99.90;;;;;;4997220;28;20459;-82
2022/01/15 00:07:48;;;;;;;29.83;12.33;;;0.70;99.90;;;;;;4997806;28;20038;-82
2022/01/15 00:10:21;;;;;;;37.73;14.10;;;0.70;99.90;;;;;;4997306;28;20085;-83
2022/01/15 00:12:47;;;;;;;37.60;12.90;;;0.80;99.90;;;;;;4997257;28;20088;-82
2022/01/15 00:15:24;;;;;;;39.17;14.07;;;0.80;99.90;;;;;;4997017;28;20030;-90
2022/01/15 00:17:58;;;;;;;38.83;13.37;;;0.70;99.90;;;;;;5013909;28;20472;-82
2022/01/15 00:20:25;;;;;;;36.57;13.40;;;0.70;99.90;;;;;;5014538;28;20021;-82
2022/01/15 00:22:53;;;;;;;29.17;12.63;;;0.70;99.90;;;;;;5014844;28;20072;-82
2022/01/15 00:25:21;;;;;;;31.23;12.30;;;0.60;99.90;;;;;;4996932;28;20032;-82
2022/01/15 00:27:47;;;;;;;31.37;12.10;;;0.60;99.90;;;;;;5014703;28;20116;-82
2022/01/15 00:30:14;;;;;;;32.73;12.03;;;0.50;99.90;;;;;;5014607;28;20030;-82
2022/01/15 00:32:40;;;;;;;27.70;11.70;;;0.50;99.90;;;;;;4996921;28;20029;-82
2022/01/15 00:35:08;;;;;;;30.70;10.93;;;0.50;99.90;;;;;;4997174;28;20108;-82
2022/01/15 00:37:34;;;;;;;33.07;11.30;;;0.50;99.90;;;;;;4996809;28;20319;-82
2022/01/15 00:40:03;;;;;;;25.83;10.63;;;0.50;99.90;;;;;;5013773;28;20054;-82
2022/01/15 00:42:30;;;;;;;31.33;11.27;;;0.40;99.90;;;;;;4996769;28;20065;-83
2022/01/15 00:44:57;;;;;;;31.47;11.63;;;0.50;99.90;;;;;;5013758;28;20034;-81
2022/01/15 00:47:25;;;;;;;27.30;10.67;;;0.50;99.90;;;;;;5014916;28;20056;-81
2022/01/15 00:49:51;;;;;;;26.63;11.10;;;0.50;99.90;;;;;;4997330;28;20026;-81
2022/01/15 00:52:17;;;;;;;27.70;10.80;;;0.50;99.90;;;;;;4997393;28;20057;-82
2022/01/15 00:54:43;;;;;;;24.17;10.43;;;0.50;99.90;;;;;;4997731;28;20463;-81
2022/01/15 00:57:08;;;;;;;21.23;9.43;;;0.50;99.90;;;;;;5015102;28;20066;-81
2022/01/15 00:59:34;;;;;;;25.50;9.90;;;0.50;99.90;;;;;;4996831;28;20021;-81
2022/01/15 01:02:00;;;;;;;26.57;10.60;;;0.40;99.90;;;;;;4997046;28;20068;-80
2022/01/15 01:04:25;;;;;;;23.17;9.87;;;0.40;99.90;;;;;;4998938;28;20033;-81
2022/01/15 01:06:51;;;;;;;23.77;10.67;;;0.40;99.90;;;;;;4996516;28;20034;-81
2022/01/15 01:09:17;;;;;;;30.67;11.23;;;0.40;99.90;;;;;;4996112;28;20050;-84
2022/01/15 01:11:52;;;;;;;28.90;11.10;;;0.40;99.90;;;;;;5012759;28;20506;-81
2022/01/15 01:25:15;;;;;;;22.70;9.30;;;0.10;99.90;;;;;;5014218;28;20092;-81
2022/01/15 01:27:48;;;;;;;22.93;9.80;;;0.10;99.90;;;;;;5016015;28;20112;-82
2022/01/15 01:30:23;;;;;;;28.47;10.63;;;0.10;99.90;;;;;;5016950;28;20029;-81
2022/01/15 01:33:14;;;;;;;25.97;10.23;;;0.10;99.90;;;;;;5000792;28;20030;-82
2022/01/15 01:35:44;;;;;;;26.03;10.23;;;0.10;99.90;;;;;;5017329;28;20419;-82
2022/01/15 01:38:22;;;;;;;28.73;10.43;;;0.20;99.90;;;;;;5017724;28;20072;-82
2022/01/15 01:40:50;;;;;;;21.80;9.97;;;0.10;99.90;;;;;;5017730;28;20017;-82
2022/01/15 01:45:54;;;;;;;27.95;10.70;;;0.10;99.90;;;;;;5017682;28;20033;-82
2022/01/15 01:48:19;;;;;;;;;;;0.10;99.90;;;;;;5000100;28;20040;-83
2022/01/15 01:50:45;;;;;;;31.93;11.37;;;0.10;99.90;;;;;;4999900;28;20012;-82
2022/01/15 01:53:11;;;;;;;27.60;9.93;;;0.10;99.90;;;;;;5000015;28;20350;-82
2022/01/15 01:55:37;;;;;;;34.20;12.97;;;0.10;99.90;;;;;;5015799;28;20034;-80
2022/01/15 01:58:03;;;;;;;31.70;10.70;;;0.20;99.90;;;;;;5000014;28;20026;-83
2022/01/15 02:00:30;;;;;;;33.73;11.83;;;0.20;99.90;;;;;;5016520;28;20456;-82
2022/01/15 02:02:57;;;;;;;32.40;11.07;;;0.20;99.90;;;;;;5000084;28;20033;-82
2022/01/15 02:05:23;;;;;;;32.90;11.67;;;0.20;99.90;;;;;;4999116;28;20068;-82
2022/01/15 02:07:50;;;;;;;31.77;11.47;;;0.20;99.90;;;;;;5000079;28;20041;-82
2022/01/15 02:10:19;;;;;;;32.67;11.13;;;0.10;99.90;;;;;;5016822;28;20463;-81
2022/01/15 02:12:46;;;;;;;27.60;11.17;;;0.10;99.90;;;;;;5015626;28;20132;-82
2022/01/15 02:15:14;;;;;;;31.73;11.50;;;0.10;99.90;;;;;;4999499;28;20033;-82
2022/01/15 02:17:42;;;;;;;27.30;11.07;;;0.10;99.90;;;;;;4999148;28;20407;-81
2022/01/15 02:20:35;;;;;;;31.63;11.67;;;0.10;99.90;;;;;;4999659;28;20030;-80
2022/01/15 02:26:05;;;;;;;30.27;11.05;;;0.10;99.90;;;;;;5016735;28;20033;-82
2022/01/15 02:28:34;;;;;;;32.27;11.33;;;0.10;99.90;;;;;;4999050;28;20053;-82
2022/01/15 02:31:18;;;;;;;28.33;11.40;;;0.10;99.90;;;;;;4999325;28;20026;-81
2022/01/15 02:33:47;;;;;;;29.33;11.13;;;0.10;99.90;;;;;;4998921;28;20075;-82
2022/01/15 02:36:19;;;;;;;31.93;11.47;;;0.10;99.90;;;;;;4999199;28;20105;-81
2022/01/15 02:38:45;;;;;;;27.40;11.65;;;0.10;99.90;;;;;;5015861;28;20022;-81
2022/01/15 02:41:11;;;;;;;32.83;11.83;;;0.00;99.90;;;;;;4999183;28;20022;-82
2022/01/15 02:43:37;;;;;;;33.83;12.97;;;0.10;99.90;;;;;;5016074;28;20034;-82
2022/01/15 02:48:52;;;;;;;31.33;12.97;;;0.10;99.90;;;;;;5016307;28;20121;-82
2022/01/15 02:51:22;;;;;;;30.03;11.53;;;0.00;99.90;;;;;;4999128;28;20029;-81
2022/01/15 02:53:54;;;;;;;28.37;11.10;;;0.10;99.90;;;;;;4999290;28;20026;-82
2022/01/15 02:56:32;;;;;;;;;;;0.10;99.90;;;;;;4999302;28;20360;-81
2022/01/15 02:58:58;;;;;;;28.87;11.13;;;0.10;99.90;;;;;;4998905;28;20365;-81
2022/01/15 03:01:24;;;;;;;32.77;11.73;;;0.10;99.90;;;;;;4998137;28;20030;-82
2022/01/15 03:03:51;;;;;;;32.30;12.27;;;0.10;99.90;;;;;;4998702;28;20026;-81
2022/01/15 03:06:19;;;;;;;28.63;12.00;;;0.10;99.90;;;;;;5015759;28;20022;-81
2022/01/15 03:08:47;;;;;;;35.17;12.87;;;0.10;99.90;;;;;;4998018;28;20033;-82
2022/01/15 03:11:13;;;;;;;33.67;12.27;;;0.10;99.90;;;;;;5011014;28;20064;-82
2022/01/15 03:13:40;;;;;;;31.60;12.57;;;0.10;99.90;;;;;;4995470;28;20518;-82
2022/01/15 03:16:11;;;;;;;33.10;12.30;;;0.10;99.90;;;;;;4996299;28;20414;-82
2022/01/15 03:18:37;;;;;;;31.47;12.70;;;0.10;99.90;;;;;;4994738;28;20118;-82
2022/01/15 03:21:03;;;;;;;29.77;12.67;;;0.10;99.90;;;;;;4994974;28;20121;-82
2022/01/15 03:23:29;;;;;;;34.37;12.40;;;0.10;99.90;;;;;;4994502;28;20026;-82
2022/01/15 03:25:55;;;;;;;32.37;12.40;;;0.00;99.90;;;;;;4996084;28;20038;-81
2022/01/15 03:28:21;;;;;;;39.03;13.53;;;0.10;99.90;;;;;;4994858;28;20030;-82
2022/01/15 03:30:46;;;;;;;32.43;12.67;;;0.00;99.90;;;;;;4994446;28;20027;-81
2022/01/15 03:33:12;;;;;;;32.37;13.27;;;0.00;99.90;;;;;;4995143;28;20380;-82
2022/01/15 03:35:38;;;;;;;32.80;12.33;;;0.00;99.90;;;;;;4995388;28;20026;-82
2022/01/15 03:38:05;;;;;;;37.70;14.20;;;0.00;99.90;;;;;;4994739;28;20033;-81
2022/01/15 03:40:32;;;;;;;26.83;12.03;;;0.10;99.90;;;;;;4993788;28;20030;-82
2022/01/15 03:42:59;;;;;;;34.97;13.70;;;0.00;99.90;;;;;;4994537;28;20022;-81
2022/01/15 03:45:25;;;;;;;26.00;11.17;;;0.10;99.90;;;;;;4994740;28;20081;-81
2022/01/15 03:47:51;;;;;;;30.50;12.53;;;0.10;99.90;;;;;;4994843;28;20121;-81
2022/01/15 03:50:18;;;;;;;30.80;12.07;;;0.10;99.90;;;;;;4994027;28;20038;-82
2022/01/15 03:52:44;;;;;;;27.90;11.97;;;0.10;99.90;;;;;;4994104;28;20105;-82
2022/01/15 03:55:11;;;;;;;33.63;12.63;;;0.10;99.90;;;;;;4994440;28;20030;-81
2022/01/15 03:57:38;;;;;;;31.87;12.20;;;0.10;99.90;;;;;;4994889;28;20030;-82
2022/01/15 04:00:24;;;;;;;29.07;12.43;;;0.10;99.90;;;;;;4994256;28;20023;-82
2022/01/15 04:02:50;;;;;;;35.00;13.23;;;0.10;99.90;;;;;;4994878;28;20037;-82
2022/01/15 04:05:16;;;;;;;25.47;11.77;;;0.10;99.90;;;;;;4994192;28;20030;-82
2022/01/15 04:07:42;;;;;;;28.77;11.60;;;0.10;99.90;;;;;;4994947;28;20061;-82
2022/01/15 04:10:10;;;;;;;28.60;11.80;;;0.10;99.90;;;;;;4993874;28;20058;-82
2022/01/15 04:12:37;;;;;;;28.10;12.40;;;0.10;99.90;;;;;;4993349;28;20492;-81
2022/01/15 04:15:03;;;;;;;31.63;12.40;;;0.10;99.90;;;;;;4993842;28;20060;-82
2022/01/15 04:17:29;;;;;;;32.33;12.27;;;0.10;99.90;;;;;;4993576;28;20046;-82
2022/01/15 04:19:56;;;;;;;31.30;12.73;;;0.10;99.90;;;;;;4994957;28;20575;-82
2022/01/15 04:22:21;;;;;;;28.10;12.10;;;0.10;99.90;;;;;;4993967;28;20023;-81
2022/01/15 04:24:47;;;;;;;28.43;11.80;;;0.10;99.90;;;;;;4993423;28;20436;-82
2022/01/15 04:27:13;;;;;;;30.60;11.97;;;0.10;99.90;;;;;;4993631;28;20396;-81
2022/01/15 04:29:39;;;;;;;30.63;12.47;;;0.10;99.90;;;;;;4993500;28;20027;-82
2022/01/15 04:32:04;;;;;;;29.67;11.63;;;0.00;99.90;;;;;;4994044;28;20026;-82
2022/01/15 04:34:30;;;;;;;29.47;12.40;;;0.00;99.90;;;;;;4994419;28;20062;-82
2022/01/15 04:37:03;;;;;;;29.87;12.70;;;0.00;99.90;;;;;;4993614;28;20121;-82
2022/01/15 04:39:29;;;;;;;33.23;13.30;;;0.10;99.90;;;;;;4993351;28;20030;-82
2022/01/15 04:41:55;;;;;;;35.97;13.13;;;0.10;99.90;;;;;;4993523;28;20096;-82
2022/01/15 04:44:21;;;;;;;32.87;13.37;;;0.10;99.90;;;;;;4993498;28;20026;-81
2022/01/15 04:46:46;;;;;;;29.93;12.77;;;0.10;99.90;;;;;;4993137;28;20046;-81
2022/01/15 04:49:12;;;;;;;34.20;13.33;;;0.10;99.90;;;;;;4993466;28;20030;-82
2022/01/15 04:51:38;;;;;;;30.33;12.03;;;0.10;99.90;;;;;;4993010;28;20027;-82
2022/01/15 04:54:04;;;;;;;32.07;13.63;;;0.10;99.90;;;;;;4993623;28;20027;-82
2022/01/15 04:56:30;;;;;;;39.97;14.17;;;0.10;99.90;;;;;;4993218;28;20031;-88
2022/01/15 04:58:56;;;;;;;31.87;12.67;;;0.10;99.90;;;;;;4994589;28;20093;-82
2022/01/15 05:01:22;;;;;;;35.60;13.57;;;0.10;99.90;;;;;;4993265;28;20030;-82
2022/01/15 05:03:47;;;;;;;28.63;12.27;;;0.10;99.90;;;;;;4992890;28;20031;-82
2022/01/15 05:06:13;;;;;;;30.57;12.50;;;0.10;99.90;;;;;;4994438;28;20491;-82
2022/01/15 05:08:40;;;;;;;31.20;12.37;;;0.10;99.90;;;;;;4993102;28;20034;-81
2022/01/15 05:11:28;;;;;;;31.43;12.53;;;0.10;99.90;;;;;;4993217;28;20050;-82
2022/01/15 05:13:53;;;;;;;29.43;12.73;;;0.10;99.90;;;;;;4993910;28;20073;-82
2022/01/15 05:16:19;;;;;;;33.33;13.67;;;0.10;99.90;;;;;;4993430;28;20034;-82
2022/01/15 05:18:44;;;;;;;29.80;12.87;;;0.20;99.90;;;;;;4992852;28;20559;-82
2022/01/15 05:21:10;;;;;;;29.47;12.03;;;0.10;99.90;;;;;;4993184;28;20085;-82
2022/01/15 05:23:36;;;;;;;29.13;11.93;;;0.10;99.90;;;;;;4992901;28;20038;-82
2022/01/15 05:26:01;;;;;;;30.87;13.00;;;0.10;99.90;;;;;;4994088;28;20065;-82
2022/01/15 05:28:27;;;;;;;26.20;11.97;;;0.00;99.90;;;;;;4993263;28;20066;-82
2022/01/15 05:30:53;;;;;;;28.30;11.93;;;0.00;99.90;;;;;;4992793;28;20033;-82
2022/01/15 05:33:18;;;;;;;24.23;11.37;;;0.00;99.90;;;;;;4994074;28;20511;-81
2022/01/15 05:35:44;;;;;;;22.97;10.17;;;-0.10;99.90;;;;;;4992463;28;20385;-82
2022/01/15 05:38:10;;;;;;;24.07;10.80;;;-0.10;99.90;;;;;;4993123;28;20033;-83
2022/01/15 05:40:36;;;;;;;26.50;11.80;;;-0.10;99.90;;;;;;4992702;28;20490;-82
2022/01/15 05:43:02;;;;;;;26.93;11.57;;;-0.20;99.90;;;;;;4992686;28;20506;-81
2022/01/15 05:45:28;;;;;;;26.33;11.10;;;-0.20;99.90;;;;;;4993124;28;20075;-82
2022/01/15 05:47:54;;;;;;;32.87;12.10;;;-0.20;99.90;;;;;;4992683;28;20392;-81
2022/01/15 05:50:20;;;;;;;30.53;11.73;;;-0.10;99.90;;;;;;4993982;28;20026;-81
2022/01/15 05:52:46;;;;;;;26.07;12.10;;;-0.20;99.90;;;;;;4993453;28;20130;-82
2022/01/15 05:55:12;;;;;;;28.00;11.77;;;-0.20;99.90;;;;;;4993146;28;20033;-81
2022/01/15 05:57:37;;;;;;;27.13;11.80;;;-0.20;99.90;;;;;;4993519;28;20030;-81
2022/01/15 06:00:06;;;;;;;26.83;11.97;;;-0.20;99.90;;;;;;4993136;28;20023;-81
2022/01/15 06:02:32;;;;;;;24.73;11.23;;;-0.20;99.90;;;;;;4992799;28;20026;-81
2022/01/15 06:04:57;;;;;;;26.07;11.57;;;-0.20;99.90;;;;;;4992500;28;20027;-81
2022/01/15 06:07:23;;;;;;;25.07;10.80;;;-0.20;99.90;;;;;;4993012;28;20030;-82
2022/01/15 06:09:49;;;;;;;29.63;11.67;;;-0.10;99.90;;;;;;4992873;28;20108;-81
2022/01/15 06:12:14;;;;;;;28.70;12.30;;;-0.10;99.90;;;;;;4993167;28;20491;-80
2022/01/15 06:14:40;;;;;;;28.83;12.80;;;-0.10;99.90;;;;;;4995954;28;20114;-82
2022/01/15 06:17:08;;;;;;;30.20;12.23;;;-0.10;99.90;;;;;;4996661;28;20038;-82
2022/01/15 06:19:35;;;;;;;29.83;11.97;;;-0.10;99.90;;;;;;4997785;28;20452;-82
2022/01/15 06:22:01;;;;;;;31.03;11.70;;;0.00;99.90;;;;;;4996679;28;20023;-82
2022/01/15 06:24:26;;;;;;;30.20;11.97;;;0.00;99.90;;;;;;4996365;28;20037;-81
2022/01/15 06:26:52;;;;;;;26.37;11.63;;;0.00;99.90;;;;;;4996662;28;20041;-81
2022/01/15 06:29:19;;;;;;;26.83;12.00;;;0.00;99.90;;;;;;4996252;28;20120;-81
2022/01/15 06:31:45;;;;;;;30.13;11.97;;;0.00;99.90;;;;;;4996084;28;20084;-81
2022/01/15 06:34:10;;;;;;;30.47;11.23;;;0.00;99.90;;;;;;4997164;28;20452;-81
2022/01/15 06:36:36;;;;;;;31.97;12.47;;;0.00;99.90;;;;;;4995826;28;20369;-85
2022/01/15 06:39:02;;;;;;;26.90;11.40;;;0.00;99.90;;;;;;4997061;28;20026;-81
2022/01/15 06:41:28;;;;;;;26.60;11.23;;;0.00;99.90;;;;;;4995373;28;20050;-82
2022/01/15 06:43:53;;;;;;;30.63;11.77;;;0.10;99.90;;;;;;4995863;28;20030;-81
2022/01/15 06:46:19;;;;;;;28.37;12.50;;;0.10;99.90;;;;;;4995845;28;20141;-81
2022/01/15 06:48:44;;;;;;;30.90;12.30;;;0.10;99.90;;;;;;4995182;28;20026;-82
2022/01/15 06:51:10;;;;;;;26.00;11.47;;;0.00;99.90;;;;;;4996182;28;20093;-81
2022/01/15 06:53:36;;;;;;;27.87;11.10;;;0.10;99.90;;;;;;4995711;28;20434;-81
2022/01/15 06:56:02;;;;;;;25.93;11.00;;;0.10;99.90;;;;;;4995886;28;20037;-81
2022/01/15 06:58:27;;;;;;;28.97;11.60;;;0.10;99.90;;;;;;4996501;28;20030;-82
2022/01/15 07:00:53;;;;;;;32.27;12.30;;;0.10;99.90;;;;;;4995184;28;20030;-82
2022/01/15 07:03:18;;;;;;;30.40;11.93;;;0.10;99.90;;;;;;4995646;28;20033;-82
2022/01/15 07:05:44;;;;;;;34.00;12.13;;;0.10;99.90;;;;;;4995001;28;20037;-82
2022/01/15 07:08:09;;;;;;;27.20;11.17;;;0.10;99.90;;;;;;4995356;28;20038;-82
2022/01/15 07:10:39;;;;;;;29.47;11.97;;;0.10;99.90;;;;;;4997056;28;20388;-81
2022/01/15 07:13:06;;;;;;;33.23;12.53;;;0.20;99.90;;;;;;4998817;28;20037;-81
2022/01/15 07:15:32;;;;;;;31.93;12.43;;;0.10;99.90;;;;;;4998555;28;20449;-81
2022/01/15 07:17:59;;;;;;;34.60;12.47;;;0.10;99.90;;;;;;4998051;28;20026;-81
2022/01/15 07:20:25;;;;;;;31.23;11.77;;;0.20;99.90;;;;;;4998608;28;20026;-81
2022/01/15 07:22:51;;;;;;;31.23;12.37;;;0.20;99.90;;;;;;5015390;28;20030;-81
2022/01/15 07:25:17;;;;;;;30.20;11.93;;;0.20;99.90;;;;;;5013904;28;20368;-80
2022/01/15 07:27:44;;;;;;;29.47;12.63;;;0.20;99.90;;;;;;4997910;28;20037;-81
2022/01/15 07:30:12;;;;;;;33.23;12.97;;;0.20;99.90;;;;;;4998386;28;20129;-80
2022/01/15 07:32:39;;;;;;;30.03;12.43;;;0.20;99.90;;;;;;4997890;28;20025;-80
2022/01/15 07:35:06;;;;;;;35.67;13.60;;;0.20;99.90;;;;;;5016003;28;20026;-81
2022/01/15 07:37:32;;;;;;;37.67;13.67;;;0.20;99.90;;;;;;4998053;28;20030;-81
2022/01/15 07:39:58;;;;;;;30.40;11.97;;;0.20;99.90;;;;;;5013679;28;20022;-81
2022/01/15 07:42:24;;;;;;;31.03;12.97;;;0.20;99.90;;;;;;4997901;28;20108;-81
2022/01/15 07:44:50;;;;;;;31.33;12.33;;;0.20;99.90;;;;;;4997243;28;20057;-81
2022/01/15 07:47:15;;;;;;;32.67;12.77;;;0.20;99.90;;;;;;4997747;28;20037;-81
2022/01/15 07:49:41;;;;;;;35.03;13.03;;;0.30;99.90;;;;;;4997672;28;20034;-82
2022/01/15 07:52:07;;;;;;;28.03;12.60;;;0.20;99.90;;;;;;5014248;28;20033;-81
2022/01/15 07:54:33;;;;;;;32.47;12.47;;;0.30;99.90;;;;;;4997417;28;20033;-81
2022/01/15 07:56:59;;;;;;;28.93;11.93;;;0.30;99.90;;;;;;5013782;28;20521;-81
2022/01/15 07:59:25;;;;;;;29.77;12.73;;;0.40;99.90;;;;;;5014815;28;20029;-81
2022/01/15 08:01:51;;;;;;;31.07;12.60;;;0.30;99.90;;;;;;4997019;28;20034;-81
2022/01/15 08:04:17;;;;;;;32.30;12.73;;;0.40;99.90;;;;;;5014996;28;20026;-81
2022/01/15 08:06:42;;;;;;;30.23;12.17;;;0.40;99.90;;;;;;4997324;28;20032;-81
2022/01/15 08:09:09;;;;;;;29.67;12.23;;;0.40;99.90;;;;;;4997424;28;20476;-81
2022/01/15 08:11:35;;;;;;;26.53;12.33;;;0.50;99.90;;;;;;5013662;28;20046;-82
2022/01/15 08:14:00;;;;;;;37.10;15.23;;;0.40;99.90;;;;;;4997348;28;20076;-81
2022/01/15 08:16:27;;;;;;;30.63;12.40;;;0.50;99.90;;;;;;5014806;28;20030;-80
2022/01/15 08:18:52;;;;;;;28.73;12.23;;;0.50;99.90;;;;;;4996948;28;20026;-81
2022/01/15 08:21:18;;;;;;;29.37;13.13;;;0.50;99.90;;;;;;4997414;28;20049;-80
2022/01/15 08:23:44;;;;;;;30.97;12.07;;;0.60;99.90;;;;;;4996909;28;20030;-82
2022/01/15 08:26:10;;;;;;;29.40;11.57;;;0.60;99.90;;;;;;4997212;28;20030;-81
2022/01/15 08:28:37;;;;;;;31.70;11.83;;;0.50;99.90;;;;;;4996733;28;20030;-81
2022/01/15 08:31:05;;;;;;;34.30;11.83;;;0.60;99.90;;;;;;4996586;28;20022;-81
2022/01/15 08:33:31;;;;;;;29.87;11.20;;;0.60;99.90;;;;;;4997138;28;20117;-81
2022/01/15 08:35:57;;;;;;;32.97;12.73;;;0.60;99.90;;;;;;4996293;28;20029;-82
2022/01/15 08:38:22;;;;;;;32.83;12.57;;;0.70;99.90;;;;;;4996708;28;20022;-82
2022/01/15 08:40:51;;;;;;;28.73;10.90;;;0.70;99.90;;;;;;5014143;28;20025;-82
2022/01/15 08:43:17;;;;;;;28.10;11.40;;;0.80;99.90;;;;;;4996827;28;20022;-82
2022/01/15 08:45:43;;;;;;;31.90;12.57;;;0.80;99.90;;;;;;4997030;28;20052;-82
2022/01/15 08:48:10;;;;;;;32.43;11.93;;;0.80;99.90;;;;;;4997076;28;20030;-82
2022/01/15 08:50:36;;;;;;;33.40;12.33;;;0.90;99.90;;;;;;5014244;28;20112;-82
2022/01/15 08:53:06;;;;;;;30.23;11.87;;;0.90;99.90;;;;;;4996188;28;20036;-82
2022/01/15 08:55:35;;;;;;;34.10;12.70;;;0.90;99.90;;;;;;4996692;28;20426;-82
2022/01/15 08:58:01;;;;;;;39.27;12.87;;;1.00;99.90;;;;;;5012597;28;20100;-82
2022/01/15 09:00:28;;;;;;;35.03;12.83;;;1.00;99.90;;;;;;5014219;28;20026;-82
2022/01/15 09:02:55;;;;;;;34.80;11.70;;;1.00;99.90;;;;;;4996604;28;20034;-82
2022/01/15 09:05:21;;;;;;;34.17;12.50;;;1.00;99.90;;;;;;4996709;28;20030;-81
2022/01/15 09:07:47;;;;;;;33.63;12.30;;;1.00;99.90;;;;;;4996299;28;20087;-82
2022/01/15 09:10:13;;;;;;;32.97;12.70;;;1.10;99.90;;;;;;4996748;28;20021;-80
2022/01/15 09:12:39;;;;;;;30.87;12.97;;;1.10;99.90;;;;;;4996230;28;20181;-82
2022/01/15 09:15:05;;;;;;;32.80;12.37;;;1.10;99.90;;;;;;4996158;28;20371;-82
2022/01/15 09:17:31;;;;;;;31.57;12.43;;;1.20;99.90;;;;;;5013858;28;20050;-81
2022/01/15 09:19:57;;;;;;;32.97;12.27;;;1.20;99.90;;;;;;4996163;28;20073;-82
2022/01/15 09:22:22;;;;;;;30.00;12.47;;;1.30;99.90;;;;;;5013014;28;20030;-82
2022/01/15 09:24:48;;;;;;;34.97;13.40;;;1.30;99.90;;;;;;4995798;28;20034;-82
2022/01/15 09:30:17;;;;;;;29.80;11.93;;;1.30;99.90;;;;;;5013465;28;20123;-82
2022/01/15 09:32:46;;;;;;;31.73;12.43;;;1.40;99.90;;;;;;4996581;28;20026;-83
2022/01/15 09:35:14;;;;;;;35.23;12.60;;;1.40;99.90;;;;;;4996449;28;20030;-81
2022/01/15 09:37:40;;;;;;;30.20;12.40;;;1.40;99.90;;;;;;5013646;28;20026;-82
2022/01/15 09:40:07;;;;;;;30.93;12.50;;;1.40;99.90;;;;;;4995745;28;20511;-82
2022/01/15 09:42:34;;;;;;;30.17;11.73;;;1.40;99.90;;;;;;5013796;28;20022;-83
2022/01/15 09:45:02;;;;;;;29.90;12.50;;;1.40;99.90;;;;;;4995775;28;20563;-82
2022/01/15 09:47:29;;;;;;;32.67;11.97;;;1.40;99.90;;;;;;5013505;28;20033;-82
2022/01/15 09:49:56;;;;;;;28.93;11.47;;;1.50;99.90;;;;;;4999738;28;20029;-82
2022/01/15 09:52:22;;;;;;;27.83;11.63;;;1.60;99.90;;;;;;5000411;28;20048;-82
2022/01/15 09:54:48;;;;;;;31.67;12.57;;;1.60;99.90;;;;;;5015950;28;20520;-82
2022/01/15 09:57:14;;;;;;;28.20;11.77;;;1.60;99.90;;;;;;4999867;28;20395;-82
2022/01/15 09:59:40;;;;;;;29.40;11.90;;;1.70;99.90;;;;;;5017495;28;20029;-81
2022/01/15 10:02:05;;;;;;;32.33;12.37;;;1.60;99.90;;;;;;4999268;28;20374;-82
2022/01/15 10:04:32;;;;;;;27.83;10.87;;;1.60;99.90;;;;;;5017341;28;20517;-82
2022/01/15 10:07:12;;;;;;;26.03;11.60;;;1.60;99.90;;;;;;4999309;28;20045;-82
2022/01/15 10:09:39;;;;;;;32.77;12.60;;;1.60;99.90;;;;;;5017156;28;20113;-81
2022/01/15 10:12:05;;;;;;;27.50;11.17;;;1.60;99.90;;;;;;5016163;28;20173;-82
2022/01/15 10:14:33;;;;;;;25.07;11.07;;;1.60;99.90;;;;;;5017295;28;20037;-82
2022/01/15 10:17:02;;;;;;;27.87;11.70;;;1.70;99.90;;;;;;4999437;28;20032;-82
2022/01/15 10:19:36;;;;;;;27.70;11.77;;;1.70;99.90;;;;;;4999773;28;20030;-83
2022/01/15 10:22:08;;;;;;;27.97;11.63;;;1.80;99.90;;;;;;4999251;28;20117;-83
2022/01/15 10:24:35;;;;;;;28.73;11.57;;;1.80;99.90;;;;;;4999509;28;20526;-82
2022/01/15 10:27:37;;;;;;;28.03;12.17;;;1.80;99.90;;;;;;4998998;28;20036;-83
2022/01/15 10:30:06;;;;;;;33.85;12.85;;;1.90;99.90;;;;;;4936800;29;20032;-83
2022/01/15 10:32:36;;;;;;;28.60;12.63;;;1.80;99.90;;;;;;4985512;28;20550;-83
2022/01/15 10:35:13;;;;;;;27.80;11.63;;;1.70;99.90;;;;;;4998820;28;20026;-82
2022/01/15 10:37:57;;;;;;;29.30;12.17;;;1.80;99.90;;;;;;5016800;28;20022;-82
2022/01/15 10:40:27;;;;;;;29.63;12.50;;;1.80;99.90;;;;;;4999588;28;20036;-82
2022/01/15 10:42:56;;;;;;;28.67;12.53;;;1.90;99.90;;;;;;5016573;28;20057;-83
2022/01/15 10:45:23;;;;;;;35.43;13.70;;;1.90;99.90;;;;;;4999321;28;20141;-82
2022/01/15 10:47:53;;;;;;;30.50;13.03;;;2.00;99.90;;;;;;4999231;28;20034;-81
2022/01/15 10:50:30;;;;;;;29.03;12.73;;;2.00;99.90;;;;;;4999208;28;20080;-80
2022/01/15 10:52:58;;;;;;;27.20;12.20;;;2.00;99.90;;;;;;5016173;28;20085;-82
2022/01/15 10:55:29;;;;;;;29.90;12.87;;;1.90;99.90;;;;;;5016404;28;20026;-83
2022/01/15 10:58:01;;;;;;;30.88;14.15;;;2.00;99.90;;;;;;4998162;28;20026;-82
2022/01/15 11:00:36;;;;;;;33.65;14.20;;;2.00;99.90;;;;;;5016199;28;20069;-82
2022/01/15 11:03:03;;;;;;;33.03;13.37;;;2.00;99.90;;;;;;4998652;28;20026;-83
2022/01/15 11:05:32;;;;;;;31.30;13.60;;;2.00;99.90;;;;;;4998983;28;20105;-82
2022/01/15 11:08:22;;;;;;;31.87;14.17;;;2.00;99.90;;;;;;4998627;28;20083;-82
2022/01/15 11:10:55;;;;;;;31.00;13.83;;;2.00;99.90;;;;;;5015767;28;20022;-82
2022/01/15 11:13:29;;;;;;;34.80;13.30;;;2.10;99.90;;;;;;4999384;28;20402;-82
2022/01/15 11:16:01;;;;;;;29.67;13.33;;;2.10;99.90;;;;;;4998974;28;20073;-83
2022/01/15 11:18:31;;;;;;;31.90;13.63;;;2.10;99.90;;;;;;5015468;28;20171;-82
2022/01/15 11:20:59;;;;;;;36.13;14.13;;;2.10;99.90;;;;;;4998369;28;20026;-82
2022/01/15 11:23:27;;;;;;;31.17;12.60;;;2.10;99.90;;;;;;4998376;28;20037;-82
2022/01/15 11:25:55;;;;;;;32.80;13.33;;;2.20;99.90;;;;;;4997523;28;20030;-87
2022/01/15 11:28:23;;;;;;;34.50;14.33;;;2.20;99.90;;;;;;4998455;28;20037;-82
2022/01/15 11:30:56;;;;;;;36.77;14.37;;;2.20;99.90;;;;;;4998591;28;20045;-82
2022/01/15 11:33:26;;;;;;;32.67;13.57;;;2.20;99.90;;;;;;4998664;28;20032;-82
2022/01/15 11:35:52;;;;;;;32.47;14.37;;;2.20;99.90;;;;;;4998216;28;20041;-82
2022/01/15 11:38:40;;;;;;;32.27;13.97;;;2.30;99.90;;;;;;5015020;28;20022;-82
2022/01/15 11:41:26;;;;;;;37.50;15.10;;;2.30;99.90;;;;;;5015138;28;20104;-82
2022/01/15 11:44:01;;;;;;;34.33;14.97;;;2.30;99.90;;;;;;5013479;28;20053;-81
2022/01/15 11:46:38;;;;;;;35.63;15.33;;;2.30;99.90;;;;;;4998114;28;20060;-82
2022/01/15 11:49:26;;;;;;;33.30;14.53;;;2.40;99.90;;;;;;4997556;28;20034;-82
2022/01/15 11:51:53;;;;;;;32.57;13.70;;;2.40;99.90;;;;;;5015419;28;20022;-82
2022/01/15 11:54:18;;;;;;;32.40;13.90;;;2.40;99.90;;;;;;4997455;28;20117;-82
2022/01/15 11:56:46;;;;;;;40.47;15.83;;;2.40;99.90;;;;;;4997697;28;20054;-82
2022/01/15 11:59:46;;;;;;;36.57;14.60;;;2.50;99.90;;;;;;4997058;28;20064;-83
2022/01/15 12:02:24;;;;;;;37.30;13.87;;;2.50;99.90;;;;;;4997010;28;20057;-82
2022/01/15 12:04:50;;;;;;;32.83;14.97;;;2.50;99.90;;;;;;5015261;28;20025;-83
2022/01/15 12:07:17;;;;;;;37.77;15.43;;;2.50;99.90;;;;;;5014486;28;20034;-82
2022/01/15 12:09:51;;;;;;;32.17;13.90;;;2.50;99.90;;;;;;4997802;28;20034;-83
2022/01/15 12:12:40;;;;;;;36.60;14.47;;;2.40;99.90;;;;;;4996385;28;20408;-83
2022/01/15 12:15:11;;;;;;;31.50;13.40;;;2.50;99.90;;;;;;4997016;28;20042;-82
2022/01/15 12:17:54;;;;;;;34.70;13.75;;;2.40;99.90;;;;;;4997726;28;20115;-82
2022/01/15 12:20:25;;;;;;;34.07;14.20;;;2.50;99.90;;;;;;4997124;28;20029;-83
2022/01/15 12:23:18;;;;;;;36.63;15.65;;;2.50;99.90;;;;;;4997846;28;20034;-82
2022/01/15 12:25:44;;;;;;;36.30;14.60;;;2.50;99.90;;;;;;5010316;28;20046;-82
2022/01/15 12:28:13;;;;;;;34.23;14.87;;;2.50;99.90;;;;;;4996828;28;20061;-82
2022/01/15 12:30:46;;;;;;;34.40;15.53;;;2.50;99.90;;;;;;4997224;28;20036;-82
2022/01/15 12:33:14;;;;;;;34.37;14.77;;;2.60;99.90;;;;;;4996766;28;20026;-82
2022/01/15 12:35:42;;;;;;;36.83;15.43;;;2.50;99.90;;;;;;4997214;28;20034;-82
2022/01/15 12:38:15;;;;;;;36.97;14.40;;;2.60;99.90;;;;;;5013016;28;20030;-82
2022/01/15 12:40:47;;;;;;;36.10;15.37;;;2.60;99.90;;;;;;5013548;28;20026;-82
2022/01/15 12:43:43;;;;;;;36.03;15.15;;;2.50;99.90;;;;;;4996709;28;20050;-82
2022/01/15 12:46:15;;;;;;;33.47;14.50;;;2.60;99.90;;;;;;5012371;28;20088;-83
2022/01/15 12:48:44;;;;;;;35.42;15.02;;;2.60;99.90;;;;;;4997259;28;20030;-81
2022/01/15 12:51:22;;;;;;;44.77;16.90;;;2.60;99.90;;;;;;4996436;28;20026;-82
2022/01/15 12:53:57;;;;;;;37.53;15.90;;;2.60;99.90;;;;;;4997172;28;20116;-82
2022/01/15 12:56:23;;;;;;;37.97;15.43;;;2.60;99.90;;;;;;4996792;28;20037;-83
2022/01/15 12:58:53;;;;;;;31.13;13.63;;;2.70;99.90;;;;;;4996953;28;20030;-82
2022/01/15 13:01:22;;;;;;;37.03;15.43;;;2.70;99.90;;;;;;4996463;28;20025;-82
2022/01/15 13:03:47;;;;;;;31.13;14.00;;;2.80;99.90;;;;;;5014279;28;20022;-81
2022/01/15 13:06:13;;;;;;;38.27;15.00;;;2.80;99.90;;;;;;4996401;28;20083;-82